sensor_id;sensor_type;location;lat;lon;timestamp;pressure;altitude;pressure_sealevel;temperature;humidity
64711;BME280;51139;45.626;6.850;2022-11-20T00:00:26;81309.72;;;-0.99;88.62
64711;BME280;51139;45.626;6.850;2022-11-20T00:02:52;81318.31;;;-1.05;88.56
64711;BME280;51139;45.626;6.850;2022-11-20T00:05:17;81304.50;;;-0.99;88.95
64711;BME280;51139;45.626;6.850;2022-11-20T00:07:43;81314.84;;;-1.07;87.28
64711;BME280;51139;45.626;6.850;2022-11-20T00:10:09;81306.13;;;-0.83;85.05
64711;BME280;51139;45.626;6.850;2022-11-20T00:12:34;81306.91;;;-1.01;82.19
64711;BME280;51139;45.626;6.850;2022-11-20T00:14:59;81310.63;;;-1.97;82.26
64711;BME280;51139;45.626;6.850;2022-11-20T00:17:25;81305.41;;;-2.10;84.95
64711;BME280;51139;45.626;6.850;2022-11-20T00:19:50;81313.97;;;-1.83;85.17
64711;BME280;51139;45.626;6.850;2022-11-20T00:22:15;81315.53;;;-1.34;84.06
64711;BME280;51139;45.626;6.850;2022-11-20T00:24:41;81323.03;;;-1.30;85.86
64711;BME280;51139;45.626;6.850;2022-11-20T00:27:06;81314.81;;;-1.34;86.83
64711;BME280;51139;45.626;6.850;2022-11-20T00:29:31;81314.91;;;-1.67;87.03
64711;BME280;51139;45.626;6.850;2022-11-20T00:31:57;81317.13;;;-1.57;79.80
64711;BME280;51139;45.626;6.850;2022-11-20T00:34:22;81310.44;;;-1.26;77.46
64711;BME280;51139;45.626;6.850;2022-11-20T00:36:47;81313.31;;;-1.43;76.98
64711;BME280;51139;45.626;6.850;2022-11-20T00:39:13;81325.63;;;-1.89;79.79
64711;BME280;51139;45.626;6.850;2022-11-20T00:41:38;81320.16;;;-1.86;84.36
64711;BME280;51139;45.626;6.850;2022-11-20T00:44:03;81323.38;;;-1.66;94.58
64711;BME280;51139;45.626;6.850;2022-11-20T00:46:29;81323.81;;;-1.49;97.62
64711;BME280;51139;45.626;6.850;2022-11-20T00:48:55;81322.59;;;-1.34;98.66
64711;BME280;51139;45.626;6.850;2022-11-20T00:51:22;81328.19;;;-1.43;93.84
64711;BME280;51139;45.626;6.850;2022-11-20T00:53:48;81327.00;;;-1.56;92.39
64711;BME280;51139;45.626;6.850;2022-11-20T00:56:16;81323.22;;;-1.28;94.97
64711;BME280;51139;45.626;6.850;2022-11-20T00:58:43;81325.50;;;-1.11;95.25
64711;BME280;51139;45.626;6.850;2022-11-20T01:01:12;81326.53;;;-1.14;95.95
64711;BME280;51139;45.626;6.850;2022-11-20T01:03:41;81326.50;;;-1.68;100.00
64711;BME280;51139;45.626;6.850;2022-11-20T01:06:11;81329.34;;;-1.85;100.00
64711;BME280;51139;45.626;6.850;2022-11-20T01:08:37;81330.38;;;-1.61;100.00
64711;BME280;51139;45.626;6.850;2022-11-20T01:11:09;81327.13;;;-1.21;97.32
64711;BME280;51139;45.626;6.850;2022-11-20T01:13:36;81328.09;;;-1.51;100.00
64711;BME280;51139;45.626;6.850;2022-11-20T01:18:31;81332.38;;;-1.54;100.00
64711;BME280;51139;45.626;6.850;2022-11-20T01:21:04;81341.09;;;-1.38;100.00
64711;BME280;51139;45.626;6.850;2022-11-20T01:23:34;81337.19;;;-1.58;97.94
64711;BME280;51139;45.626;6.850;2022-11-20T01:26:01;81338.03;;;-1.82;100.00
64711;BME280;51139;45.626;6.850;2022-11-20T01:28:28;81342.75;;;-1.81;100.00
64711;BME280;51139;45.626;6.850;2022-11-20T01:30:54;81348.50;;;-1.88;100.00
64711;BME280;51139;45.626;6.850;2022-11-20T01:33:19;81354.53;;;-1.80;100.00
64711;BME280;51139;45.626;6.850;2022-11-20T01:35:45;81348.91;;;-1.84;100.00
64711;BME280;51139;45.626;6.850;2022-11-20T01:38:10;81356.84;;;-1.76;100.00
64711;BME280;51139;45.626;6.850;2022-11-20T01:40:35;81352.06;;;-1.72;100.00
64711;BME280;51139;45.626;6.850;2022-11-20T01:43:19;81359.09;;;-1.86;100.00
64711;BME280;51139;45.626;6.850;2022-11-20T01:46:08;81356.06;;;-2.03;100.00
64711;BME280;51139;45.626;6.850;2022-11-20T01:48:45;81359.06;;;-1.99;100.00
64711;BME280;51139;45.626;6.850;2022-11-20T01:51:17;81360.91;;;-1.81;100.00
64711;BME280;51139;45.626;6.850;2022-11-20T01:53:44;81360.75;;;-1.69;100.00
64711;BME280;51139;45.626;6.850;2022-11-20T01:56:11;81356.13;;;-1.77;100.00
64711;BME280;51139;45.626;6.850;2022-11-20T01:58:43;81360.47;;;-1.66;100.00
64711;BME280;51139;45.626;6.850;2022-11-20T02:01:12;81359.91;;;-1.78;100.00
64711;BME280;51139;45.626;6.850;2022-11-20T02:03:38;81361.78;;;-1.92;100.00
64711;BME280;51139;45.626;6.850;2022-11-20T02:06:24;81363.47;;;-1.94;100.00
64711;BME280;51139;45.626;6.850;2022-11-20T02:08:51;81363.28;;;-2.15;100.00
64711;BME280;51139;45.626;6.850;2022-11-20T02:11:16;81363.75;;;-3.32;100.00
64711;BME280;51139;45.626;6.850;2022-11-20T02:13:42;81364.78;;;-3.66;100.00
64711;BME280;51139;45.626;6.850;2022-11-20T02:16:23;81362.47;;;-3.69;100.00
64711;BME280;51139;45.626;6.850;2022-11-20T02:18:50;81365.75;;;-3.99;100.00
64711;BME280;51139;45.626;6.850;2022-11-20T02:21:21;81370.13;;;-4.13;100.00
64711;BME280;51139;45.626;6.850;2022-11-20T02:24:09;81361.13;;;-4.06;100.00
64711;BME280;51139;45.626;6.850;2022-11-20T02:27:01;81364.28;;;-3.89;100.00
64711;BME280;51139;45.626;6.850;2022-11-20T02:29:33;81363.75;;;-4.12;100.00
64711;BME280;51139;45.626;6.850;2022-11-20T02:32:01;81357.88;;;-3.82;100.00
64711;BME280;51139;45.626;6.850;2022-11-20T02:34:28;81360.28;;;-3.90;100.00
64711;BME280;51139;45.626;6.850;2022-11-20T02:36:54;81365.03;;;-3.94;100.00
64711;BME280;51139;45.626;6.850;2022-11-20T02:39:22;81353.34;;;-3.51;100.00
64711;BME280;51139;45.626;6.850;2022-11-20T02:41:52;81361.91;;;-3.37;100.00
64711;BME280;51139;45.626;6.850;2022-11-20T02:44:19;81356.19;;;-3.05;96.59
64711;BME280;51139;45.626;6.850;2022-11-20T02:46:45;81358.72;;;-3.24;93.56
64711;BME280;51139;45.626;6.850;2022-11-20T02:49:10;81346.41;;;-3.18;93.07
64711;BME280;51139;45.626;6.850;2022-11-20T02:51:36;81360.16;;;-3.48;92.00
64711;BME280;51139;45.626;6.850;2022-11-20T02:54:01;81357.13;;;-3.27;88.37
64711;BME280;51139;45.626;6.850;2022-11-20T02:56:27;81350.78;;;-3.32;85.83
64711;BME280;51139;45.626;6.850;2022-11-20T02:58:52;81355.22;;;-3.27;88.31
64711;BME280;51139;45.626;6.850;2022-11-20T03:01:18;81357.06;;;-3.46;88.55
64711;BME280;51139;45.626;6.850;2022-11-20T03:03:43;81353.94;;;-3.39;90.13
64711;BME280;51139;45.626;6.850;2022-11-20T03:06:08;81349.28;;;-3.46;93.13
64711;BME280;51139;45.626;6.850;2022-11-20T03:08:34;81355.63;;;-3.42;91.99
64711;BME280;51139;45.626;6.850;2022-11-20T03:11:04;81349.53;;;-3.69;93.16
64711;BME280;51139;45.626;6.850;2022-11-20T03:13:30;81354.47;;;-3.71;93.21
64711;BME280;51139;45.626;6.850;2022-11-20T03:15:55;81357.28;;;-3.44;93.16
64711;BME280;51139;45.626;6.850;2022-11-20T03:18:20;81354.25;;;-3.48;89.23
64711;BME280;51139;45.626;6.850;2022-11-20T03:20:46;81355.69;;;-4.03;91.96
64711;BME280;51139;45.626;6.850;2022-11-20T03:23:11;81358.47;;;-4.31;92.32
64711;BME280;51139;45.626;6.850;2022-11-20T03:25:37;81361.16;;;-3.82;91.08
64711;BME280;51139;45.626;6.850;2022-11-20T03:28:02;81360.59;;;-3.99;91.29
64711;BME280;51139;45.626;6.850;2022-11-20T03:30:27;81361.19;;;-4.18;92.36
64711;BME280;51139;45.626;6.850;2022-11-20T03:32:53;81358.19;;;-4.22;92.58
64711;BME280;51139;45.626;6.850;2022-11-20T03:35:19;81364.13;;;-4.02;90.77
64711;BME280;51139;45.626;6.850;2022-11-20T03:37:44;81354.09;;;-4.12;92.82
64711;BME280;51139;45.626;6.850;2022-11-20T03:40:11;81356.09;;;-3.93;89.47
64711;BME280;51139;45.626;6.850;2022-11-20T03:42:36;81354.91;;;-3.67;89.83
64711;BME280;51139;45.626;6.850;2022-11-20T03:45:15;81352.22;;;-3.81;90.85
64711;BME280;51139;45.626;6.850;2022-11-20T03:47:41;81356.25;;;-3.85;90.64
64711;BME280;51139;45.626;6.850;2022-11-20T03:50:07;81361.28;;;-3.68;90.61
64711;BME280;51139;45.626;6.850;2022-11-20T03:52:32;81361.59;;;-3.53;89.71
64711;BME280;51139;45.626;6.850;2022-11-20T03:54:58;81362.94;;;-3.71;89.72
64711;BME280;51139;45.626;6.850;2022-11-20T03:57:23;81361.06;;;-3.70;87.85
64711;BME280;51139;45.626;6.850;2022-11-20T03:59:48;81360.41;;;-3.76;90.23
64711;BME280;51139;45.626;6.850;2022-11-20T04:02:14;81367.56;;;-3.88;86.89
64711;BME280;51139;45.626;6.850;2022-11-20T04:04:39;81369.38;;;-4.08;86.77
64711;BME280;51139;45.626;6.850;2022-11-20T04:07:04;81368.41;;;-4.05;88.29
64711;BME280;51139;45.626;6.850;2022-11-20T04:09:30;81359.75;;;-3.83;88.53
64711;BME280;51139;45.626;6.850;2022-11-20T04:11:55;81361.22;;;-3.62;87.53
64711;BME280;51139;45.626;6.850;2022-11-20T04:14:21;81363.44;;;-3.47;85.39
64711;BME280;51139;45.626;6.850;2022-11-20T04:16:46;81367.00;;;-3.75;85.96
64711;BME280;51139;45.626;6.850;2022-11-20T04:19:14;81372.31;;;-3.68;86.47
64711;BME280;51139;45.626;6.850;2022-11-20T04:21:40;81371.53;;;-3.57;85.02
64711;BME280;51139;45.626;6.850;2022-11-20T04:24:06;81368.16;;;-3.27;83.51
64711;BME280;51139;45.626;6.850;2022-11-20T04:26:31;81372.88;;;-3.25;82.23
64711;BME280;51139;45.626;6.850;2022-11-20T04:28:57;81374.56;;;-3.83;85.72
64711;BME280;51139;45.626;6.850;2022-11-20T04:31:26;81382.03;;;-3.74;87.51
64711;BME280;51139;45.626;6.850;2022-11-20T04:33:52;81380.38;;;-3.46;86.85
64711;BME280;51139;45.626;6.850;2022-11-20T04:36:19;81366.59;;;-3.60;86.47
64711;BME280;51139;45.626;6.850;2022-11-20T04:38:45;81376.25;;;-3.36;86.40
64711;BME280;51139;45.626;6.850;2022-11-20T04:41:15;81378.63;;;-3.13;85.75
64711;BME280;51139;45.626;6.850;2022-11-20T04:43:41;81384.19;;;-3.03;85.28
64711;BME280;51139;45.626;6.850;2022-11-20T04:46:06;81381.09;;;-3.46;85.77
64711;BME280;51139;45.626;6.850;2022-11-20T04:48:31;81374.66;;;-3.94;88.18
64711;BME280;51139;45.626;6.850;2022-11-20T04:50:57;81374.91;;;-3.68;90.31
64711;BME280;51139;45.626;6.850;2022-11-20T04:53:23;81378.63;;;-3.88;90.53
64711;BME280;51139;45.626;6.850;2022-11-20T04:55:48;81378.34;;;-3.59;89.11
64711;BME280;51139;45.626;6.850;2022-11-20T04:58:14;81375.47;;;-3.50;85.85
64711;BME280;51139;45.626;6.850;2022-11-20T05:00:40;81375.16;;;-3.41;85.76
64711;BME280;51139;45.626;6.850;2022-11-20T05:03:05;81376.06;;;-3.63;85.17
64711;BME280;51139;45.626;6.850;2022-11-20T05:05:33;81371.44;;;-3.76;85.57
64711;BME280;51139;45.626;6.850;2022-11-20T05:07:58;81374.44;;;-3.97;85.62
64711;BME280;51139;45.626;6.850;2022-11-20T05:10:27;81374.84;;;-3.87;87.53
64711;BME280;51139;45.626;6.850;2022-11-20T05:12:52;81374.19;;;-3.93;86.67
64711;BME280;51139;45.626;6.850;2022-11-20T05:15:18;81384.63;;;-3.74;87.49
64711;BME280;51139;45.626;6.850;2022-11-20T05:17:50;81387.84;;;-3.68;85.75
64711;BME280;51139;45.626;6.850;2022-11-20T05:20:16;81391.81;;;-3.61;85.17
64711;BME280;51139;45.626;6.850;2022-11-20T05:22:42;81394.22;;;-3.99;87.59
64711;BME280;51139;45.626;6.850;2022-11-20T05:25:08;81392.78;;;-3.94;87.60
64711;BME280;51139;45.626;6.850;2022-11-20T05:27:33;81396.44;;;-4.15;90.03
64711;BME280;51139;45.626;6.850;2022-11-20T05:29:58;81399.56;;;-3.86;88.55
64711;BME280;51139;45.626;6.850;2022-11-20T05:32:24;81394.97;;;-3.74;87.08
64711;BME280;51139;45.626;6.850;2022-11-20T05:34:53;81399.81;;;-3.64;86.03
64711;BME280;51139;45.626;6.850;2022-11-20T05:37:18;81405.97;;;-3.98;88.26
64711;BME280;51139;45.626;6.850;2022-11-20T05:39:44;81407.06;;;-4.18;88.94
64711;BME280;51139;45.626;6.850;2022-11-20T05:42:09;81400.06;;;-4.23;89.53
64711;BME280;51139;45.626;6.850;2022-11-20T05:44:53;81401.47;;;-4.64;91.43
64711;BME280;51139;45.626;6.850;2022-11-20T05:47:18;81406.22;;;-4.74;93.46
64711;BME280;51139;45.626;6.850;2022-11-20T05:49:43;81403.91;;;-4.78;94.61
64711;BME280;51139;45.626;6.850;2022-11-20T05:52:09;81403.47;;;-4.40;98.12
64711;BME280;51139;45.626;6.850;2022-11-20T05:54:34;81403.09;;;-4.25;100.00
64711;BME280;51139;45.626;6.850;2022-11-20T05:57:00;81398.16;;;-3.87;100.00
64711;BME280;51139;45.626;6.850;2022-11-20T05:59:25;81407.31;;;-4.22;100.00
64711;BME280;51139;45.626;6.850;2022-11-20T06:01:51;81403.47;;;-3.79;100.00
64711;BME280;51139;45.626;6.850;2022-11-20T06:04:16;81409.75;;;-3.99;100.00
64711;BME280;51139;45.626;6.850;2022-11-20T06:06:41;81409.59;;;-3.52;100.00
64711;BME280;51139;45.626;6.850;2022-11-20T06:09:07;81406.13;;;-3.85;100.00
64711;BME280;51139;45.626;6.850;2022-11-20T06:11:32;81412.63;;;-4.45;96.17
64711;BME280;51139;45.626;6.850;2022-11-20T06:13:58;81404.88;;;-4.92;92.81
64711;BME280;51139;45.626;6.850;2022-11-20T06:16:23;81406.88;;;-5.21;92.82
64711;BME280;51139;45.626;6.850;2022-11-20T06:18:48;81409.81;;;-4.94;94.14
64711;BME280;51139;45.626;6.850;2022-11-20T06:21:16;81411.88;;;-4.76;91.58
64711;BME280;51139;45.626;6.850;2022-11-20T06:23:42;81404.84;;;-4.81;89.82
64711;BME280;51139;45.626;6.850;2022-11-20T06:26:10;81409.41;;;-4.57;90.41
64711;BME280;51139;45.626;6.850;2022-11-20T06:28:36;81408.88;;;-4.44;87.81
64711;BME280;51139;45.626;6.850;2022-11-20T06:31:02;81409.75;;;-4.35;88.60
64711;BME280;51139;45.626;6.850;2022-11-20T06:33:28;81409.41;;;-4.57;88.88
64711;BME280;51139;45.626;6.850;2022-11-20T06:35:59;81408.41;;;-4.90;91.07
64711;BME280;51139;45.626;6.850;2022-11-20T06:38:26;81408.13;;;-4.86;93.66
64711;BME280;51139;45.626;6.850;2022-11-20T06:40:52;81413.72;;;-5.35;95.00
64711;BME280;51139;45.626;6.850;2022-11-20T06:43:17;81409.78;;;-5.48;97.52
64711;BME280;51139;45.626;6.850;2022-11-20T06:45:42;81408.13;;;-5.45;98.65
64711;BME280;51139;45.626;6.850;2022-11-20T06:48:08;81406.47;;;-5.37;100.00
64711;BME280;51139;45.626;6.850;2022-11-20T06:50:35;81414.41;;;-5.23;100.00
64711;BME280;51139;45.626;6.850;2022-11-20T06:53:02;81412.84;;;-4.85;100.00
64711;BME280;51139;45.626;6.850;2022-11-20T06:55:28;81415.09;;;-5.17;99.77
64711;BME280;51139;45.626;6.850;2022-11-20T06:57:53;81414.25;;;-4.89;100.00
64711;BME280;51139;45.626;6.850;2022-11-20T07:00:19;81417.34;;;-4.91;100.00
64711;BME280;51139;45.626;6.850;2022-11-20T07:02:44;81422.34;;;-5.10;99.76
64711;BME280;51139;45.626;6.850;2022-11-20T07:05:09;81423.19;;;-4.90;99.16
64711;BME280;51139;45.626;6.850;2022-11-20T07:07:35;81434.41;;;-4.71;98.30
64711;BME280;51139;45.626;6.850;2022-11-20T07:10:00;81431.16;;;-4.77;98.81
64711;BME280;51139;45.626;6.850;2022-11-20T07:12:25;81437.91;;;-4.68;99.57
64711;BME280;51139;45.626;6.850;2022-11-20T07:14:51;81442.16;;;-4.76;100.00
64711;BME280;51139;45.626;6.850;2022-11-20T07:17:16;81437.22;;;-4.74;100.00
64711;BME280;51139;45.626;6.850;2022-11-20T07:19:41;81442.72;;;-4.42;100.00
64711;BME280;51139;45.626;6.850;2022-11-20T07:22:08;81442.50;;;-4.49;99.42
64711;BME280;51139;45.626;6.850;2022-11-20T07:24:33;81446.34;;;-4.62;98.82
64711;BME280;51139;45.626;6.850;2022-11-20T07:27:00;81442.69;;;-4.36;100.00
64711;BME280;51139;45.626;6.850;2022-11-20T07:29:25;81441.00;;;-4.28;96.68
64711;BME280;51139;45.626;6.850;2022-11-20T07:31:50;81444.56;;;-4.36;96.26
64711;BME280;51139;45.626;6.850;2022-11-20T07:34:16;81446.09;;;-4.58;98.25
64711;BME280;51139;45.626;6.850;2022-11-20T07:36:41;81454.81;;;-4.67;100.00
64711;BME280;51139;45.626;6.850;2022-11-20T07:39:06;81452.97;;;-4.72;97.95
64711;BME280;51139;45.626;6.850;2022-11-20T07:41:32;81450.16;;;-4.74;97.60
64711;BME280;51139;45.626;6.850;2022-11-20T07:43:57;81456.34;;;-4.41;98.33
64711;BME280;51139;45.626;6.850;2022-11-20T07:46:22;81456.59;;;-4.39;94.58
64711;BME280;51139;45.626;6.850;2022-11-20T07:48:48;81449.72;;;-4.36;94.58
64711;BME280;51139;45.626;6.850;2022-11-20T07:51:13;81448.47;;;-4.24;91.77
64711;BME280;51139;45.626;6.850;2022-11-20T07:53:38;81454.78;;;-4.14;89.69
64711;BME280;51139;45.626;6.850;2022-11-20T07:56:04;81438.00;;;-3.71;87.76
64711;BME280;51139;45.626;6.850;2022-11-20T07:58:30;81450.19;;;-3.10;84.23
64711;BME280;51139;45.626;6.850;2022-11-20T08:01:01;81443.03;;;-3.23;80.68
64711;BME280;51139;45.626;6.850;2022-11-20T08:03:27;81455.19;;;-2.87;76.84
64711;BME280;51139;45.626;6.850;2022-11-20T08:05:52;81456.72;;;-2.79;76.94
64711;BME280;51139;45.626;6.850;2022-11-20T08:08:18;81450.59;;;-2.56;76.90
64711;BME280;51139;45.626;6.850;2022-11-20T08:10:43;81449.56;;;-2.47;78.02
64711;BME280;51139;45.626;6.850;2022-11-20T08:13:09;81453.84;;;-1.93;78.33
64711;BME280;51139;45.626;6.850;2022-11-20T08:15:53;81447.91;;;-1.41;74.35
64711;BME280;51139;45.626;6.850;2022-11-20T08:18:18;81455.97;;;-1.58;73.15
64711;BME280;51139;45.626;6.850;2022-11-20T08:20:44;81457.59;;;-1.09;68.95
64711;BME280;51139;45.626;6.850;2022-11-20T08:23:09;81463.44;;;-0.90;68.44
64711;BME280;51139;45.626;6.850;2022-11-20T08:25:36;81465.81;;;-0.92;70.45
64711;BME280;51139;45.626;6.850;2022-11-20T08:28:05;81469.06;;;-1.18;68.61
64711;BME280;51139;45.626;6.850;2022-11-20T08:30:31;81466.94;;;-0.87;69.52
64711;BME280;51139;45.626;6.850;2022-11-20T08:33:02;81466.25;;;-0.07;67.14
64711;BME280;51139;45.626;6.850;2022-11-20T08:35:28;81466.66;;;-0.30;63.37
64711;BME280;51139;45.626;6.850;2022-11-20T08:37:53;81462.94;;;-0.88;63.86
64711;BME280;51139;45.626;6.850;2022-11-20T08:40:18;81464.09;;;-2.20;68.26
64711;BME280;51139;45.626;6.850;2022-11-20T08:42:51;81465.03;;;-1.84;65.31
64711;BME280;51139;45.626;6.850;2022-11-20T08:45:17;81463.63;;;-0.74;64.56
64711;BME280;51139;45.626;6.850;2022-11-20T08:47:44;81464.06;;;-2.39;63.09
64711;BME280;51139;45.626;6.850;2022-11-20T08:50:11;81462.47;;;-0.33;63.11
64711;BME280;51139;45.626;6.850;2022-11-20T08:52:37;81458.50;;;-1.39;61.37
64711;BME280;51139;45.626;6.850;2022-11-20T08:55:03;81468.50;;;-2.14;61.49
64711;BME280;51139;45.626;6.850;2022-11-20T08:57:34;81458.16;;;-0.70;59.09
64711;BME280;51139;45.626;6.850;2022-11-20T08:59:59;81464.91;;;-0.94;57.87
64711;BME280;51139;45.626;6.850;2022-11-20T09:02:25;81464.00;;;-1.10;58.29
64711;BME280;51139;45.626;6.850;2022-11-20T09:04:51;81460.34;;;0.27;56.10
64711;BME280;51139;45.626;6.850;2022-11-20T09:07:16;81459.97;;;0.58;52.93
64711;BME280;51139;45.626;6.850;2022-11-20T09:09:41;81464.28;;;0.90;55.58
64711;BME280;51139;45.626;6.850;2022-11-20T09:12:07;81467.09;;;0.79;52.85
64711;BME280;51139;45.626;6.850;2022-11-20T09:14:32;81468.75;;;0.68;54.25
64711;BME280;51139;45.626;6.850;2022-11-20T09:16:58;81470.81;;;1.05;50.21
64711;BME280;51139;45.626;6.850;2022-11-20T09:19:24;81470.41;;;1.22;50.60
64711;BME280;51139;45.626;6.850;2022-11-20T09:21:50;81468.88;;;1.77;50.65
64711;BME280;51139;45.626;6.850;2022-11-20T09:24:15;81470.19;;;2.28;48.81
64711;BME280;51139;45.626;6.850;2022-11-20T09:26:41;81470.66;;;2.18;50.58
64711;BME280;51139;45.626;6.850;2022-11-20T09:29:06;81476.09;;;1.63;53.86
64711;BME280;51139;45.626;6.850;2022-11-20T09:31:32;81471.91;;;1.59;52.80
64711;BME280;51139;45.626;6.850;2022-11-20T09:33:57;81475.88;;;2.63;49.39
64711;BME280;51139;45.626;6.850;2022-11-20T09:36:23;81470.63;;;2.11;48.70
64711;BME280;51139;45.626;6.850;2022-11-20T09:38:48;81472.78;;;2.72;48.43
64711;BME280;51139;45.626;6.850;2022-11-20T09:46:45;81466.09;;;3.70;46.47
64711;BME280;51139;45.626;6.850;2022-11-20T09:54:19;81472.66;;;2.94;45.91
64711;BME280;51139;45.626;6.850;2022-11-20T09:56:50;81477.84;;;2.78;48.80
64711;BME280;51139;45.626;6.850;2022-11-20T09:59:32;81481.63;;;1.80;49.88
64711;BME280;51139;45.626;6.850;2022-11-20T10:02:00;81483.88;;;1.05;52.94
64711;BME280;51139;45.626;6.850;2022-11-20T10:04:29;81480.34;;;1.02;55.01
64711;BME280;51139;45.626;6.850;2022-11-20T10:07:03;81480.91;;;1.08;55.23
64711;BME280;51139;45.626;6.850;2022-11-20T10:09:34;81483.66;;;1.24;54.80
64711;BME280;51139;45.626;6.850;2022-11-20T10:25:39;81474.34;;;0.03;62.03
64711;BME280;51139;45.626;6.850;2022-11-20T10:30:57;81477.13;;;0.19;62.51
64711;BME280;51139;45.626;6.850;2022-11-20T10:33:27;81475.78;;;0.25;60.18
64711;BME280;51139;45.626;6.850;2022-11-20T10:38:40;81470.25;;;-0.06;60.37
64711;BME280;51139;45.626;6.850;2022-11-20T10:41:16;81471.50;;;-1.72;67.88
64711;BME280;51139;45.626;6.850;2022-11-20T10:43:56;81474.13;;;-1.91;66.53
64711;BME280;51139;45.626;6.850;2022-11-20T10:46:25;81473.63;;;-2.09;70.05
64711;BME280;51139;45.626;6.850;2022-11-20T10:48:55;81466.69;;;-1.03;66.09
64711;BME280;51139;45.626;6.850;2022-11-20T10:51:31;81469.63;;;0.02;65.31
64711;BME280;51139;45.626;6.850;2022-11-20T10:54:25;81470.72;;;-0.07;59.78
64711;BME280;51139;45.626;6.850;2022-11-20T10:57:01;81470.69;;;-1.01;61.06
64711;BME280;51139;45.626;6.850;2022-11-20T11:02:01;81464.22;;;-1.08;64.31
64711;BME280;51139;45.626;6.850;2022-11-20T11:07:24;81456.00;;;0.78;62.21
64711;BME280;51139;45.626;6.850;2022-11-20T11:09:54;81456.03;;;-0.45;62.65
64711;BME280;51139;45.626;6.850;2022-11-20T11:12:24;81445.91;;;0.05;62.61
64711;BME280;51139;45.626;6.850;2022-11-20T11:14:52;81462.75;;;-0.36;56.73
64711;BME280;51139;45.626;6.850;2022-11-20T11:17:34;81452.31;;;0.04;60.46
64711;BME280;51139;45.626;6.850;2022-11-20T11:20:06;81455.50;;;0.45;61.98
64711;BME280;51139;45.626;6.850;2022-11-20T11:22:34;81457.91;;;-1.45;60.97
64711;BME280;51139;45.626;6.850;2022-11-20T11:25:00;81453.72;;;-0.08;63.12
64711;BME280;51139;45.626;6.850;2022-11-20T11:27:26;81462.34;;;0.35;56.39
64711;BME280;51139;45.626;6.850;2022-11-20T11:30:11;81456.28;;;0.19;62.43
64711;BME280;51139;45.626;6.850;2022-11-20T11:32:38;81446.34;;;0.52;61.62
64711;BME280;51139;45.626;6.850;2022-11-20T11:35:06;81442.59;;;0.95;64.73
64711;BME280;51139;45.626;6.850;2022-11-20T11:37:37;81441.84;;;0.52;59.82
64711;BME280;51139;45.626;6.850;2022-11-20T11:40:05;81442.69;;;0.68;60.31
64711;BME280;51139;45.626;6.850;2022-11-20T11:42:31;81450.13;;;0.85;64.74
64711;BME280;51139;45.626;6.850;2022-11-20T11:45:00;81448.69;;;0.42;62.01
64711;BME280;51139;45.626;6.850;2022-11-20T11:47:46;81460.53;;;0.64;63.11
64711;BME280;51139;45.626;6.850;2022-11-20T11:58:33;81463.25;;;0.93;65.40
64711;BME280;51139;45.626;6.850;2022-11-20T12:06:28;81454.97;;;0.81;63.46
64711;BME280;51139;45.626;6.850;2022-11-20T12:09:00;81449.22;;;0.83;57.67
64711;BME280;51139;45.626;6.850;2022-11-20T12:14:19;81453.31;;;0.92;65.45
64711;BME280;51139;45.626;6.850;2022-11-20T12:16:50;81444.09;;;0.91;64.13
64711;BME280;51139;45.626;6.850;2022-11-20T12:19:17;81451.66;;;1.02;66.58
64711;BME280;51139;45.626;6.850;2022-11-20T12:30:04;81439.31;;;1.82;62.94
64711;BME280;51139;45.626;6.850;2022-11-20T12:37:52;81441.06;;;1.29;59.84
64711;BME280;51139;45.626;6.850;2022-11-20T12:40:55;81438.34;;;1.35;64.70
64711;BME280;51139;45.626;6.850;2022-11-20T12:43:27;81433.38;;;0.04;58.92
64711;BME280;51139;45.626;6.850;2022-11-20T12:49:22;81431.63;;;1.18;59.97
64711;BME280;51139;45.626;6.850;2022-11-20T12:51:55;81423.81;;;1.26;66.65
64711;BME280;51139;45.626;6.850;2022-11-20T13:02:51;81442.06;;;0.97;63.45
64711;BME280;51139;45.626;6.850;2022-11-20T13:08:31;81433.03;;;0.98;65.01
64711;BME280;51139;45.626;6.850;2022-11-20T13:11:12;81428.00;;;1.00;68.09
64711;BME280;51139;45.626;6.850;2022-11-20T13:16:32;81428.81;;;1.16;63.12
64711;BME280;51139;45.626;6.850;2022-11-20T13:19:03;81428.44;;;0.13;61.35
64711;BME280;51139;45.626;6.850;2022-11-20T13:21:37;81424.22;;;-0.38;64.47
64711;BME280;51139;45.626;6.850;2022-11-20T13:24:06;81422.31;;;0.11;63.26
64711;BME280;51139;45.626;6.850;2022-11-20T13:26:33;81429.00;;;-1.23;61.98
64711;BME280;51139;45.626;6.850;2022-11-20T13:29:11;81421.72;;;0.18;69.65
64711;BME280;51139;45.626;6.850;2022-11-20T13:31:44;81421.72;;;-0.43;59.15
64711;BME280;51139;45.626;6.850;2022-11-20T13:34:13;81414.94;;;0.02;59.53
64711;BME280;51139;45.626;6.850;2022-11-20T13:36:53;81410.50;;;-1.06;62.57
64711;BME280;51139;45.626;6.850;2022-11-20T13:39:35;81417.47;;;0.28;62.63
64711;BME280;51139;45.626;6.850;2022-11-20T13:42:25;81417.66;;;0.31;60.97
64711;BME280;51139;45.626;6.850;2022-11-20T13:45:01;81412.63;;;0.33;59.48
64711;BME280;51139;45.626;6.850;2022-11-20T13:47:28;81414.81;;;-0.27;55.83
64711;BME280;51139;45.626;6.850;2022-11-20T13:49:58;81403.53;;;0.61;59.73
64711;BME280;51139;45.626;6.850;2022-11-20T13:52:37;81405.13;;;0.64;60.61
64711;BME280;51139;45.626;6.850;2022-11-20T14:00:19;81408.03;;;0.60;57.01
64711;BME280;51139;45.626;6.850;2022-11-20T14:02:57;81408.81;;;-0.90;58.24
64711;BME280;51139;45.626;6.850;2022-11-20T14:05:24;81405.06;;;-0.13;56.79
64711;BME280;51139;45.626;6.850;2022-11-20T14:07:51;81406.19;;;-0.22;56.82
64711;BME280;51139;45.626;6.850;2022-11-20T14:10:27;81413.81;;;-0.38;61.97
64711;BME280;51139;45.626;6.850;2022-11-20T14:12:53;81408.72;;;0.39;62.21
64711;BME280;51139;45.626;6.850;2022-11-20T14:17:50;81418.56;;;0.33;57.82
64711;BME280;51139;45.626;6.850;2022-11-20T14:20:16;81421.22;;;0.20;55.32
64711;BME280;51139;45.626;6.850;2022-11-20T14:22:50;81417.59;;;0.44;58.64
64711;BME280;51139;45.626;6.850;2022-11-20T14:27:43;81406.78;;;0.53;53.70
64711;BME280;51139;45.626;6.850;2022-11-20T14:30:14;81409.31;;;0.67;53.33
64711;BME280;51139;45.626;6.850;2022-11-20T14:32:42;81410.25;;;0.56;54.98
64711;BME280;51139;45.626;6.850;2022-11-20T14:35:13;81415.44;;;0.35;55.63
64711;BME280;51139;45.626;6.850;2022-11-20T14:37:40;81420.75;;;0.64;56.03
64711;BME280;51139;45.626;6.850;2022-11-20T14:40:33;81419.56;;;-0.05;54.54